sensor_id;sensor_type;location;lat;lon;timestamp;pressure;altitude;pressure_sealevel;temperature;humidity
70468;BME280;57934;51.532;7.684;2023-11-21T00:02:15;99775.53;;;7.77;nan
70468;BME280;57934;51.532;7.684;2023-11-21T00:04:41;99789.91;;;7.81;nan
70468;BME280;57934;51.532;7.684;2023-11-21T00:07:07;99788.28;;;7.80;nan
70468;BME280;57934;51.532;7.684;2023-11-21T00:09:33;99794.34;;;7.81;nan
70468;BME280;57934;51.532;7.684;2023-11-21T00:11:59;99793.91;;;7.77;nan
70468;BME280;57934;51.532;7.684;2023-11-21T00:14:25;99792.28;;;7.76;nan
70468;BME280;57934;51.532;7.684;2023-11-21T00:16:51;99796.31;;;7.79;nan
70468;BME280;57934;51.532;7.684;2023-11-21T00:19:17;99794.97;;;7.83;nan
70468;BME280;57934;51.532;7.684;2023-11-21T00:21:43;99793.53;;;7.80;nan
70468;BME280;57934;51.532;7.684;2023-11-21T00:24:12;99792.28;;;7.76;nan
70468;BME280;57934;51.532;7.684;2023-11-21T00:26:40;99801.97;;;7.76;nan
70468;BME280;57934;51.532;7.684;2023-11-21T00:29:08;99803.75;;;7.75;nan
70468;BME280;57934;51.532;7.684;2023-11-21T00:31:34;99808.84;;;7.77;nan
70468;BME280;57934;51.532;7.684;2023-11-21T00:34:05;99801.78;;;7.77;nan
70468;BME280;57934;51.532;7.684;2023-11-21T00:36:31;99803.75;;;7.75;nan
70468;BME280;57934;51.532;7.684;2023-11-21T00:38:58;99807.66;;;7.79;nan
70468;BME280;57934;51.532;7.684;2023-11-21T00:41:25;99816.28;;;7.73;nan
70468;BME280;57934;51.532;7.684;2023-11-21T00:43:54;99814.19;;;7.69;nan
70468;BME280;57934;51.532;7.684;2023-11-21T00:46:21;99814.03;;;7.70;nan
70468;BME280;57934;51.532;7.684;2023-11-21T00:48:48;99814.84;;;7.71;nan
70468;BME280;57934;51.532;7.684;2023-11-21T00:51:16;99812.03;;;7.72;nan
70468;BME280;57934;51.532;7.684;2023-11-21T00:53:43;99817.28;;;7.72;nan
70468;BME280;57934;51.532;7.684;2023-11-21T00:56:09;99812.66;;;7.74;nan
70468;BME280;57934;51.532;7.684;2023-11-21T00:58:36;99816.28;;;7.73;nan
70468;BME280;57934;51.532;7.684;2023-11-21T01:01:02;99812.66;;;7.74;nan
70468;BME280;57934;51.532;7.684;2023-11-21T01:03:29;99827.00;;;7.78;nan
70468;BME280;57934;51.532;7.684;2023-11-21T01:05:55;99822.56;;;7.79;nan
70468;BME280;57934;51.532;7.684;2023-11-21T01:08:21;99818.16;;;7.79;nan
70468;BME280;57934;51.532;7.684;2023-11-21T01:10:47;99827.22;;;7.77;nan
70468;BME280;57934;51.532;7.684;2023-11-21T01:13:14;99823.41;;;7.79;nan
70468;BME280;57934;51.532;7.684;2023-11-21T01:15:41;99823.44;;;7.86;nan
70468;BME280;57934;51.532;7.684;2023-11-21T01:18:07;99831.53;;;7.84;nan
70468;BME280;57934;51.532;7.684;2023-11-21T01:20:34;99833.06;;;7.79;nan
70468;BME280;57934;51.532;7.684;2023-11-21T01:23:00;99829.84;;;7.77;nan
70468;BME280;57934;51.532;7.684;2023-11-21T01:25:27;99835.91;;;7.77;nan
70468;BME280;57934;51.532;7.684;2023-11-21T01:27:53;99830.66;;;7.77;nan
70468;BME280;57934;51.532;7.684;2023-11-21T01:30:19;99836.63;;;7.71;nan
70468;BME280;57934;51.532;7.684;2023-11-21T01:32:45;99829.75;;;7.70;nan
70468;BME280;57934;51.532;7.684;2023-11-21T01:35:11;99836.38;;;7.66;nan
70468;BME280;57934;51.532;7.684;2023-11-21T01:37:38;99831.94;;;7.67;nan
70468;BME280;57934;51.532;7.684;2023-11-21T01:40:05;99829.50;;;7.65;nan
70468;BME280;57934;51.532;7.684;2023-11-21T01:42:35;99834.13;;;7.63;nan
70468;BME280;57934;51.532;7.684;2023-11-21T01:45:02;99825.97;;;7.58;nan
70468;BME280;57934;51.532;7.684;2023-11-21T01:47:33;99837.03;;;7.53;nan
70468;BME280;57934;51.532;7.684;2023-11-21T01:50:02;99839.66;;;7.53;nan
70468;BME280;57934;51.532;7.684;2023-11-21T01:52:30;99841.47;;;7.53;nan
70468;BME280;57934;51.532;7.684;2023-11-21T01:54:58;99837.16;;;7.45;nan
70468;BME280;57934;51.532;7.684;2023-11-21T01:57:26;99837.31;;;7.44;nan
70468;BME280;57934;51.532;7.684;2023-11-21T01:59:54;99840.16;;;7.42;nan
70468;BME280;57934;51.532;7.684;2023-11-21T02:02:20;99840.50;;;7.39;nan
70468;BME280;57934;51.532;7.684;2023-11-21T02:04:46;99848.19;;;7.40;nan
70468;BME280;57934;51.532;7.684;2023-11-21T02:07:12;99848.19;;;7.40;nan
70468;BME280;57934;51.532;7.684;2023-11-21T02:09:38;99842.78;;;7.42;nan
70468;BME280;57934;51.532;7.684;2023-11-21T02:12:09;99850.44;;;7.44;nan
70468;BME280;57934;51.532;7.684;2023-11-21T02:14:39;99850.81;;;7.40;nan
70468;BME280;57934;51.532;7.684;2023-11-21T02:17:05;99859.69;;;7.39;nan
70468;BME280;57934;51.532;7.684;2023-11-21T02:19:31;99869.56;;;7.37;nan
70468;BME280;57934;51.532;7.684;2023-11-21T02:21:59;99869.91;;;7.34;nan
70468;BME280;57934;51.532;7.684;2023-11-21T02:24:32;99870.28;;;7.31;nan
70468;BME280;57934;51.532;7.684;2023-11-21T02:26:58;99874.88;;;7.29;nan
70468;BME280;57934;51.532;7.684;2023-11-21T02:29:24;99882.59;;;7.31;nan
70468;BME280;57934;51.532;7.684;2023-11-21T02:31:55;99876.06;;;7.27;nan
70468;BME280;57934;51.532;7.684;2023-11-21T02:34:22;99882.50;;;7.24;nan
70468;BME280;57934;51.532;7.684;2023-11-21T02:36:48;99880.59;;;7.18;nan
70468;BME280;57934;51.532;7.684;2023-11-21T02:39:18;99888.44;;;7.18;nan
70468;BME280;57934;51.532;7.684;2023-11-21T02:41:44;99896.06;;;7.13;nan
70468;BME280;57934;51.532;7.684;2023-11-21T02:44:10;99883.56;;;7.15;nan
70468;BME280;57934;51.532;7.684;2023-11-21T02:46:37;99888.34;;;7.11;nan
70468;BME280;57934;51.532;7.684;2023-11-21T02:49:03;99887.75;;;7.09;nan
70468;BME280;57934;51.532;7.684;2023-11-21T02:51:30;99882.41;;;7.03;nan
70468;BME280;57934;51.532;7.684;2023-11-21T02:53:56;99879.78;;;7.03;nan
70468;BME280;57934;51.532;7.684;2023-11-21T02:56:27;99880.94;;;7.00;nan
70468;BME280;57934;51.532;7.684;2023-11-21T02:58:57;99875.69;;;7.00;nan
70468;BME280;57934;51.532;7.684;2023-11-21T03:01:23;99882.47;;;6.94;nan
70468;BME280;57934;51.532;7.684;2023-11-21T03:03:50;99884.13;;;6.96;nan
70468;BME280;57934;51.532;7.684;2023-11-21T03:06:19;99883.13;;;6.97;nan
70468;BME280;57934;51.532;7.684;2023-11-21T03:08:46;99889.81;;;6.99;nan
70468;BME280;57934;51.532;7.684;2023-11-21T03:11:13;99892.25;;;7.01;nan
70468;BME280;57934;51.532;7.684;2023-11-21T03:13:42;99896.94;;;7.05;nan
70468;BME280;57934;51.532;7.684;2023-11-21T03:16:09;99900.00;;;7.09;nan
70468;BME280;57934;51.532;7.684;2023-11-21T03:18:39;99909.78;;;7.15;nan
70468;BME280;57934;51.532;7.684;2023-11-21T03:21:06;99910.22;;;7.18;nan
70468;BME280;57934;51.532;7.684;2023-11-21T03:23:36;99903.19;;;7.19;nan
70468;BME280;57934;51.532;7.684;2023-11-21T03:26:03;99907.72;;;7.25;nan
70468;BME280;57934;51.532;7.684;2023-11-21T03:28:30;99907.16;;;7.30;nan
70468;BME280;57934;51.532;7.684;2023-11-21T03:30:56;99909.63;;;7.31;nan
70468;BME280;57934;51.532;7.684;2023-11-21T03:33:23;99916.47;;;7.32;nan
70468;BME280;57934;51.532;7.684;2023-11-21T03:35:51;99917.47;;;7.31;nan
70468;BME280;57934;51.532;7.684;2023-11-21T03:38:19;99919.84;;;7.41;nan
70468;BME280;57934;51.532;7.684;2023-11-21T03:40:45;99915.56;;;7.40;nan
70468;BME280;57934;51.532;7.684;2023-11-21T03:43:11;99921.00;;;7.38;nan
70468;BME280;57934;51.532;7.684;2023-11-21T03:45:38;99921.16;;;7.37;nan
70468;BME280;57934;51.532;7.684;2023-11-21T03:48:07;99927.06;;;7.39;nan
70468;BME280;57934;51.532;7.684;2023-11-21T03:50:33;99932.31;;;7.39;nan
70468;BME280;57934;51.532;7.684;2023-11-21T03:52:59;99930.69;;;7.38;nan
70468;BME280;57934;51.532;7.684;2023-11-21T03:55:25;99935.94;;;7.38;nan
70468;BME280;57934;51.532;7.684;2023-11-21T03:57:52;99942.81;;;7.39;nan
70468;BME280;57934;51.532;7.684;2023-11-21T04:00:19;99948.84;;;7.39;nan
70468;BME280;57934;51.532;7.684;2023-11-21T04:02:48;99950.66;;;7.39;nan
70468;BME280;57934;51.532;7.684;2023-11-21T04:05:14;99954.75;;;7.41;nan
70468;BME280;57934;51.532;7.684;2023-11-21T04:07:40;99959.34;;;7.39;nan
70468;BME280;57934;51.532;7.684;2023-11-21T04:10:07;99962.78;;;7.40;nan
70468;BME280;57934;51.532;7.684;2023-11-21T04:12:39;99967.06;;;7.41;nan
70468;BME280;57934;51.532;7.684;2023-11-21T04:15:05;99972.09;;;7.43;nan
70468;BME280;57934;51.532;7.684;2023-11-21T04:17:31;99973.91;;;7.42;nan
70468;BME280;57934;51.532;7.684;2023-11-21T04:19:57;99971.66;;;7.39;nan
70468;BME280;57934;51.532;7.684;2023-11-21T04:22:23;99967.41;;;7.38;nan
70468;BME280;57934;51.532;7.684;2023-11-21T04:24:49;99971.00;;;7.37;nan
70468;BME280;57934;51.532;7.684;2023-11-21T04:27:15;99979.25;;;7.34;nan
70468;BME280;57934;51.532;7.684;2023-11-21T04:29:44;99984.50;;;7.34;nan
70468;BME280;57934;51.532;7.684;2023-11-21T04:32:10;99981.88;;;7.34;nan
70468;BME280;57934;51.532;7.684;2023-11-21T04:34:36;99980.69;;;7.36;nan
70468;BME280;57934;51.532;7.684;2023-11-21T04:37:03;99987.94;;;7.34;nan
70468;BME280;57934;51.532;7.684;2023-11-21T04:39:32;99985.94;;;7.36;nan
70468;BME280;57934;51.532;7.684;2023-11-21T04:41:58;99988.41;;;7.38;nan
70468;BME280;57934;51.532;7.684;2023-11-21T04:44:24;99980.16;;;7.41;nan
70468;BME280;57934;51.532;7.684;2023-11-21T04:46:50;99986.69;;;7.45;nan
70468;BME280;57934;51.532;7.684;2023-11-21T04:49:17;99984.50;;;7.49;nan
70468;BME280;57934;51.532;7.684;2023-11-21T04:51:43;99987.38;;;7.54;nan
70468;BME280;57934;51.532;7.684;2023-11-21T04:54:09;99989.41;;;7.52;nan
70468;BME280;57934;51.532;7.684;2023-11-21T04:56:35;99982.50;;;7.51;nan
70468;BME280;57934;51.532;7.684;2023-11-21T04:59:01;99992.19;;;7.50;nan
70468;BME280;57934;51.532;7.684;2023-11-21T05:01:27;99981.25;;;7.47;nan
70468;BME280;57934;51.532;7.684;2023-11-21T05:03:53;99986.69;;;7.45;nan
70468;BME280;57934;51.532;7.684;2023-11-21T05:06:19;99993.75;;;7.45;nan
70468;BME280;57934;51.532;7.684;2023-11-21T05:08:45;99993.09;;;7.43;nan
70468;BME280;57934;51.532;7.684;2023-11-21T05:11:12;99987.59;;;7.37;nan
70468;BME280;57934;51.532;7.684;2023-11-21T05:13:38;99991.53;;;7.33;nan
70468;BME280;57934;51.532;7.684;2023-11-21T05:16:04;99997.63;;;7.34;nan
70468;BME280;57934;51.532;7.684;2023-11-21T05:18:32;99992.72;;;7.31;nan
70468;BME280;57934;51.532;7.684;2023-11-21T05:20:58;99991.25;;;7.28;nan
70468;BME280;57934;51.532;7.684;2023-11-21T05:23:24;99996.06;;;7.25;nan
70468;BME280;57934;51.532;7.684;2023-11-21T05:25:50;100000.84;;;7.21;nan
70468;BME280;57934;51.532;7.684;2023-11-21T05:28:16;100008.72;;;7.21;nan
70468;BME280;57934;51.532;7.684;2023-11-21T05:30:42;100003.28;;;7.23;nan
70468;BME280;57934;51.532;7.684;2023-11-21T05:33:09;100007.34;;;7.25;nan
70468;BME280;57934;51.532;7.684;2023-11-21T05:35:36;100015.88;;;7.27;nan
70468;BME280;57934;51.532;7.684;2023-11-21T05:38:02;100020.75;;;7.30;nan
70468;BME280;57934;51.532;7.684;2023-11-21T05:40:29;100030.72;;;7.35;nan
70468;BME280;57934;51.532;7.684;2023-11-21T05:42:55;100026.47;;;7.34;nan
70468;BME280;57934;51.532;7.684;2023-11-21T05:45:21;100029.09;;;7.34;nan
70468;BME280;57934;51.532;7.684;2023-11-21T05:47:47;100021.03;;;7.35;nan
70468;BME280;57934;51.532;7.684;2023-11-21T05:50:15;100029.72;;;7.36;nan
70468;BME280;57934;51.532;7.684;2023-11-21T05:52:43;100024.91;;;7.39;nan
70468;BME280;57934;51.532;7.684;2023-11-21T05:55:09;100028.53;;;7.38;nan
70468;BME280;57934;51.532;7.684;2023-11-21T05:57:39;100042.28;;;7.40;nan
70468;BME280;57934;51.532;7.684;2023-11-21T06:00:09;100046.56;;;7.41;nan
70468;BME280;57934;51.532;7.684;2023-11-21T06:02:40;100049.63;;;7.45;nan
70468;BME280;57934;51.532;7.684;2023-11-21T06:05:07;100055.34;;;7.49;nan
70468;BME280;57934;51.532;7.684;2023-11-21T06:07:34;100057.41;;;7.53;nan
70468;BME280;57934;51.532;7.684;2023-11-21T06:10:08;100065.47;;;7.52;nan
70468;BME280;57934;51.532;7.684;2023-11-21T06:12:38;100065.63;;;7.50;nan
70468;BME280;57934;51.532;7.684;2023-11-21T06:15:06;100074.16;;;7.52;nan
70468;BME280;57934;51.532;7.684;2023-11-21T06:17:37;100080.22;;;7.53;nan
70468;BME280;57934;51.532;7.684;2023-11-21T06:20:04;100084.19;;;7.49;nan
70468;BME280;57934;51.532;7.684;2023-11-21T06:22:38;100076.44;;;7.55;nan
70468;BME280;57934;51.532;7.684;2023-11-21T06:25:06;100084.81;;;7.51;nan
70468;BME280;57934;51.532;7.684;2023-11-21T06:27:32;100085.00;;;7.49;nan
70468;BME280;57934;51.532;7.684;2023-11-21T06:30:00;100093.53;;;7.51;nan
70468;BME280;57934;51.532;7.684;2023-11-21T06:32:26;100090.25;;;7.49;nan
70468;BME280;57934;51.532;7.684;2023-11-21T06:34:52;100090.72;;;7.53;nan
70468;BME280;57934;51.532;7.684;2023-11-21T06:37:20;100097.56;;;7.54;nan
70468;BME280;57934;51.532;7.684;2023-11-21T06:39:49;100093.16;;;7.54;nan
70468;BME280;57934;51.532;7.684;2023-11-21T06:42:18;100103.94;;;7.59;nan
70468;BME280;57934;51.532;7.684;2023-11-21T06:44:47;100108.84;;;7.62;nan
70468;BME280;57934;51.532;7.684;2023-11-21T06:47:14;100110.00;;;7.60;nan
70468;BME280;57934;51.532;7.684;2023-11-21T06:49:42;100108.84;;;7.62;nan
70468;BME280;57934;51.532;7.684;2023-11-21T06:52:09;100117.31;;;7.64;nan
70468;BME280;57934;51.532;7.684;2023-11-21T06:54:36;100117.78;;;7.68;nan
70468;BME280;57934;51.532;7.684;2023-11-21T06:57:03;100121.72;;;7.72;nan
70468;BME280;57934;51.532;7.684;2023-11-21T06:59:29;100123.69;;;7.70;nan
70468;BME280;57934;51.532;7.684;2023-11-21T07:01:55;100136.16;;;7.68;nan
70468;BME280;57934;51.532;7.684;2023-11-21T07:04:21;100135.19;;;7.69;nan
70468;BME280;57934;51.532;7.684;2023-11-21T07:06:47;100133.19;;;7.71;nan
70468;BME280;57934;51.532;7.684;2023-11-21T07:09:13;100139.88;;;7.74;nan
70468;BME280;57934;51.532;7.684;2023-11-21T07:11:39;100143.63;;;7.79;nan
70468;BME280;57934;51.532;7.684;2023-11-21T07:14:05;100142.78;;;7.79;nan
70468;BME280;57934;51.532;7.684;2023-11-21T07:16:34;100149.31;;;7.83;nan
70468;BME280;57934;51.532;7.684;2023-11-21T07:19:04;100162.25;;;7.84;nan
70468;BME280;57934;51.532;7.684;2023-11-21T07:21:32;100171.25;;;7.90;nan
70468;BME280;57934;51.532;7.684;2023-11-21T07:24:00;100163.28;;;7.98;nan
70468;BME280;57934;51.532;7.684;2023-11-21T07:26:30;100166.16;;;7.88;nan
70468;BME280;57934;51.532;7.684;2023-11-21T07:28:56;100169.44;;;7.91;nan
70468;BME280;57934;51.532;7.684;2023-11-21T07:31:22;100167.25;;;7.94;nan
70468;BME280;57934;51.532;7.684;2023-11-21T07:33:50;100179.03;;;7.98;nan
70468;BME280;57934;51.532;7.684;2023-11-21T07:36:19;100179.94;;;8.05;nan
70468;BME280;57934;51.532;7.684;2023-11-21T07:38:46;100186.81;;;8.06;nan
70468;BME280;57934;51.532;7.684;2023-11-21T07:41:13;100184.38;;;8.05;nan
70468;BME280;57934;51.532;7.684;2023-11-21T07:43:42;100190.25;;;8.07;nan
70468;BME280;57934;51.532;7.684;2023-11-21T07:46:08;100186.66;;;8.08;nan
70468;BME280;57934;51.532;7.684;2023-11-21T07:48:34;100191.00;;;8.16;nan
70468;BME280;57934;51.532;7.684;2023-11-21T07:51:02;100190.47;;;8.20;nan
70468;BME280;57934;51.532;7.684;2023-11-21T07:53:33;100196.63;;;8.12;nan
70468;BME280;57934;51.532;7.684;2023-11-21T07:56:03;100184.84;;;8.08;nan
70468;BME280;57934;51.532;7.684;2023-11-21T07:58:29;100192.88;;;8.07;nan
70468;BME280;57934;51.532;7.684;2023-11-21T08:00:55;100194.53;;;8.08;nan
70468;BME280;57934;51.532;7.684;2023-11-21T08:03:21;100197.69;;;8.03;nan
70468;BME280;57934;51.532;7.684;2023-11-21T08:05:47;100194.25;;;8.03;nan
70468;BME280;57934;51.532;7.684;2023-11-21T08:08:13;100190.66;;;8.04;nan
70468;BME280;57934;51.532;7.684;2023-11-21T08:10:39;100192.44;;;8.03;nan
70468;BME280;57934;51.532;7.684;2023-11-21T08:13:05;100196.97;;;8.09;nan
70468;BME280;57934;51.532;7.684;2023-11-21T08:15:34;100201.31;;;8.17;nan
70468;BME280;57934;51.532;7.684;2023-11-21T08:18:02;100202.06;;;8.26;nan
70468;BME280;57934;51.532;7.684;2023-11-21T08:20:29;100213.03;;;8.29;nan
70468;BME280;57934;51.532;7.684;2023-11-21T08:22:55;100216.47;;;8.30;nan
70468;BME280;57934;51.532;7.684;2023-11-21T08:25:22;100227.78;;;8.30;nan
70468;BME280;57934;51.532;7.684;2023-11-21T08:27:48;100230.88;;;8.34;nan
70468;BME280;57934;51.532;7.684;2023-11-21T08:30:15;100231.06;;;8.32;nan
70468;BME280;57934;51.532;7.684;2023-11-21T08:32:43;100238.28;;;8.30;nan
70468;BME280;57934;51.532;7.684;2023-11-21T08:35:10;100243.19;;;8.33;nan
70468;BME280;57934;51.532;7.684;2023-11-21T08:37:37;100249.16;;;8.27;nan
70468;BME280;57934;51.532;7.684;2023-11-21T08:40:05;100247.34;;;8.28;nan
70468;BME280;57934;51.532;7.684;2023-11-21T08:42:35;100247.34;;;8.28;nan
70468;BME280;57934;51.532;7.684;2023-11-21T08:45:01;100248.19;;;8.28;nan
70468;BME280;57934;51.532;7.684;2023-11-21T08:47:28;100253.91;;;8.32;nan
70468;BME280;57934;51.532;7.684;2023-11-21T08:49:54;100263.09;;;8.28;nan
70468;BME280;57934;51.532;7.684;2023-11-21T08:52:20;100270.00;;;8.29;nan
70468;BME280;57934;51.532;7.684;2023-11-21T08:54:49;100269.19;;;8.28;nan
70468;BME280;57934;51.532;7.684;2023-11-21T08:57:22;100285.59;;;8.30;nan
70468;BME280;57934;51.532;7.684;2023-11-21T08:59:48;100291.53;;;8.24;nan
70468;BME280;57934;51.532;7.684;2023-11-21T09:02:14;100286.94;;;8.26;nan
70468;BME280;57934;51.532;7.684;2023-11-21T09:04:40;100285.88;;;8.35;nan
70468;BME280;57934;51.532;7.684;2023-11-21T09:07:06;100284.72;;;8.38;nan
70468;BME280;57934;51.532;7.684;2023-11-21T09:09:32;100289.97;;;8.38;nan
70468;BME280;57934;51.532;7.684;2023-11-21T09:11:59;100283.56;;;8.41;nan
70468;BME280;57934;51.532;7.684;2023-11-21T09:14:28;100279.56;;;8.45;nan
70468;BME280;57934;51.532;7.684;2023-11-21T09:16:54;100289.97;;;8.53;nan
70468;BME280;57934;51.532;7.684;2023-11-21T09:19:23;100286.38;;;8.54;nan
70468;BME280;57934;51.532;7.684;2023-11-21T09:21:49;100293.63;;;8.67;nan
70468;BME280;57934;51.532;7.684;2023-11-21T09:24:18;100295.28;;;8.68;nan
70468;BME280;57934;51.532;7.684;2023-11-21T09:26:44;100301.81;;;8.72;nan
70468;BME280;57934;51.532;7.684;2023-11-21T09:29:11;100303.53;;;8.79;nan
70468;BME280;57934;51.532;7.684;2023-11-21T09:31:37;100307.16;;;8.78;nan
70468;BME280;57934;51.532;7.684;2023-11-21T09:34:04;100314.59;;;8.75;nan
70468;BME280;57934;51.532;7.684;2023-11-21T09:36:32;100310.59;;;8.79;nan
70468;BME280;57934;51.532;7.684;2023-11-21T09:38:59;100313.50;;;8.84;nan
70468;BME280;57934;51.532;7.684;2023-11-21T09:41:44;100315.66;;;8.80;nan
70468;BME280;57934;51.532;7.684;2023-11-21T09:44:17;100321.28;;;8.77;nan
70468;BME280;57934;51.532;7.684;2023-11-21T09:46:47;100327.38;;;8.78;nan
70468;BME280;57934;51.532;7.684;2023-11-21T09:49:14;100330.38;;;8.90;nan
70468;BME280;57934;51.532;7.684;2023-11-21T09:51:44;100334.00;;;8.89;nan
70468;BME280;57934;51.532;7.684;2023-11-21T09:54:11;100334.91;;;8.81;nan
70468;BME280;57934;51.532;7.684;2023-11-21T09:56:38;100336.97;;;8.71;nan
70468;BME280;57934;51.532;7.684;2023-11-21T09:59:05;100340.06;;;8.74;nan
70468;BME280;57934;51.532;7.684;2023-11-21T10:01:36;100345.13;;;8.76;nan
70468;BME280;57934;51.532;7.684;2023-11-21T10:04:02;100336.78;;;8.72;nan
70468;BME280;57934;51.532;7.684;2023-11-21T10:06:28;100336.34;;;8.69;nan
70468;BME280;57934;51.532;7.684;2023-11-21T10:08:57;100333.13;;;8.58;nan
70468;BME280;57934;51.532;7.684;2023-11-21T10:11:26;100331.16;;;8.60;nan
70468;BME280;57934;51.532;7.684;2023-11-21T10:13:54;100341.38;;;8.55;nan
70468;BME280;57934;51.532;7.684;2023-11-21T10:16:25;100342.28;;;8.48;nan
70468;BME280;57934;51.532;7.684;2023-11-21T10:18:53;100343.38;;;8.53;nan
70468;BME280;57934;51.532;7.684;2023-11-21T10:21:22;100346.63;;;8.55;nan
70468;BME280;57934;51.532;7.684;2023-11-21T10:23:51;100349.25;;;8.55;nan
70468;BME280;57934;51.532;7.684;2023-11-21T10:26:20;100346.47;;;8.57;nan
70468;BME280;57934;51.532;7.684;2023-11-21T10:28:59;100350.06;;;8.56;nan
70468;BME280;57934;51.532;7.684;2023-11-21T10:31:33;100345.13;;;8.61;nan
70468;BME280;57934;51.532;7.684;2023-11-21T10:34:18;100346.94;;;8.60;nan
70468;BME280;57934;51.532;7.684;2023-11-21T10:36:45;100350.72;;;8.58;nan
70468;BME280;57934;51.532;7.684;2023-11-21T10:39:16;100344.47;;;8.74;nan
70468;BME280;57934;51.532;7.684;2023-11-21T10:41:44;100354.53;;;8.70;nan
70468;BME280;57934;51.532;7.684;2023-11-21T10:44:14;100353.09;;;8.68;nan
70468;BME280;57934;51.532;7.684;2023-11-21T10:46:55;100355.63;;;8.61;nan
70468;BME280;57934;51.532;7.684;2023-11-21T10:49:26;100346.84;;;8.69;nan
70468;BME280;57934;51.532;7.684;2023-11-21T10:51:53;100359.34;;;8.67;nan
70468;BME280;57934;51.532;7.684;2023-11-21T10:54:20;100358.25;;;8.61;nan
70468;BME280;57934;51.532;7.684;2023-11-21T10:56:50;100365.72;;;8.49;nan
70468;BME280;57934;51.532;7.684;2023-11-21T10:59:17;100371.28;;;8.54;nan
70468;BME280;57934;51.532;7.684;2023-11-21T11:01:45;100366.75;;;8.48;nan
70468;BME280;57934;51.532;7.684;2023-11-21T11:04:15;100380.56;;;8.42;nan
70468;BME280;57934;51.532;7.684;2023-11-21T11:06:43;100379.34;;;8.53;nan
70468;BME280;57934;51.532;7.684;2023-11-21T11:09:13;100386.38;;;8.38;nan
70468;BME280;57934;51.532;7.684;2023-11-21T11:11:40;100385.06;;;8.33;nan
70468;BME280;57934;51.532;7.684;2023-11-21T11:14:11;100389.38;;;8.49;nan
70468;BME280;57934;51.532;7.684;2023-11-21T11:16:39;100393.31;;;8.53;nan
70468;BME280;57934;51.532;7.684;2023-11-21T11:19:09;100393.81;;;8.49;nan
70468;BME280;57934;51.532;7.684;2023-11-21T11:30:57;100388.84;;;8.39;nan
70468;BME280;57934;51.532;7.684;2023-11-21T11:33:52;100395.72;;;8.40;nan
70468;BME280;57934;51.532;7.684;2023-11-21T11:36:54;100394.66;;;8.49;nan
70468;BME280;57934;51.532;7.684;2023-11-21T11:39:37;100395.19;;;8.45;nan
70468;BME280;57934;51.532;7.684;2023-11-21T11:42:19;100386.13;;;8.47;nan
70468;BME280;57934;51.532;7.684;2023-11-21T11:44:53;100390.84;;;8.52;nan
70468;BME280;57934;51.532;7.684;2023-11-21T11:52:42;100387.88;;;8.55;nan
70468;BME280;57934;51.532;7.684;2023-11-21T11:55:11;100386.06;;;8.55;nan
70468;BME280;57934;51.532;7.684;2023-11-21T11:57:38;100392.44;;;8.38;nan
70468;BME280;57934;51.532;7.684;2023-11-21T12:00:20;100403.53;;;8.48;nan
70468;BME280;57934;51.532;7.684;2023-11-21T12:02:52;100395.94;;;8.53;nan
70468;BME280;57934;51.532;7.684;2023-11-21T12:05:23;100411.38;;;8.56;nan
70468;BME280;57934;51.532;7.684;2023-11-21T12:07:53;100422.16;;;8.39;nan
70468;BME280;57934;51.532;7.684;2023-11-21T12:10:25;100413.50;;;8.53;nan
70468;BME280;57934;51.532;7.684;2023-11-21T12:12:56;100418.88;;;8.36;nan
70468;BME280;57934;51.532;7.684;2023-11-21T12:15:24;100426.38;;;8.48;nan
70468;BME280;57934;51.532;7.684;2023-11-21T12:17:51;100422.13;;;8.47;nan
70468;BME280;57934;51.532;7.684;2023-11-21T12:20:21;100433.34;;;8.32;nan
70468;BME280;57934;51.532;7.684;2023-11-21T12:22:52;100434.38;;;8.54;nan
70468;BME280;57934;51.532;7.684;2023-11-21T12:25:24;100434.44;;;8.46;nan
70468;BME280;57934;51.532;7.684;2023-11-21T12:27:52;100434.13;;;8.41;nan
70468;BME280;57934;51.532;7.684;2023-11-21T12:30:22;100443.63;;;8.42;nan
70468;BME280;57934;51.532;7.684;2023-11-21T12:32:52;100437.56;;;8.42;nan
70468;BME280;57934;51.532;7.684;2023-11-21T12:35:20;100451.72;;;8.41;nan
70468;BME280;57934;51.532;7.684;2023-11-21T12:37:48;100452.72;;;8.40;nan
70468;BME280;57934;51.532;7.684;2023-11-21T12:40:15;100452.66;;;8.48;nan
70468;BME280;57934;51.532;7.684;2023-11-21T12:42:44;100462.41;;;8.39;nan
70468;BME280;57934;51.532;7.684;2023-11-21T12:45:28;100460.25;;;8.34;nan
70468;BME280;57934;51.532;7.684;2023-11-21T12:47:56;100461.13;;;8.27;nan
70468;BME280;57934;51.532;7.684;2023-11-21T12:50:27;100458.69;;;8.25;nan
70468;BME280;57934;51.532;7.684;2023-11-21T12:53:03;100456.97;;;8.41;nan
70468;BME280;57934;51.532;7.684;2023-11-21T12:55:32;100449.81;;;8.26;nan
70468;BME280;57934;51.532;7.684;2023-11-21T12:58:01;100455.84;;;8.04;nan
70468;BME280;57934;51.532;7.684;2023-11-21T13:00:46;100453.94;;;8.21;nan
70468;BME280;57934;51.532;7.684;2023-11-21T13:03:14;100464.16;;;8.16;nan
70468;BME280;57934;51.532;7.684;2023-11-21T13:05:46;100462.47;;;8.23;nan
70468;BME280;57934;51.532;7.684;2023-11-21T13:08:17;100465.38;;;8.28;nan
70468;BME280;57934;51.532;7.684;2023-11-21T13:10:49;100476.28;;;8.17;nan
70468;BME280;57934;51.532;7.684;2023-11-21T13:13:16;100481.38;;;8.18;nan
70468;BME280;57934;51.532;7.684;2023-11-21T13:18:14;100484.28;;;8.23;nan
70468;BME280;57934;51.532;7.684;2023-11-21T13:20:41;100495.47;;;8.25;nan
70468;BME280;57934;51.532;7.684;2023-11-21T13:23:12;100493.50;;;8.19;nan
70468;BME280;57934;51.532;7.684;2023-11-21T13:25:38;100505.31;;;8.23;nan
70468;BME280;57934;51.532;7.684;2023-11-21T13:28:07;100507.41;;;8.28;nan
70468;BME280;57934;51.532;7.684;2023-11-21T13:30:34;100510.03;;;8.28;nan
70468;BME280;57934;51.532;7.684;2023-11-21T13:33:03;100516.16;;;8.20;nan
70468;BME280;57934;51.532;7.684;2023-11-21T13:35:35;100518.38;;;8.31;nan
70468;BME280;57934;51.532;7.684;2023-11-21T13:38:13;100514.66;;;8.26;nan
70468;BME280;57934;51.532;7.684;2023-11-21T13:40:46;100518.44;;;8.23;nan
70468;BME280;57934;51.532;7.684;2023-11-21T13:43:16;100516.75;;;8.30;nan
70468;BME280;57934;51.532;7.684;2023-11-21T13:45:52;100522.41;;;8.19;nan
70468;BME280;57934;51.532;7.684;2023-11-21T13:48:38;100519.25;;;8.24;nan
70468;BME280;57934;51.532;7.684;2023-11-21T13:51:09;100521.59;;;8.19;nan